createdAt,value
2023-04-24T00:02:20.876Z,80.64
2023-04-24T00:04:50.148Z,80.83
2023-04-24T00:07:18.529Z,81.14
2023-04-24T00:09:47.096Z,81.59
2023-04-24T00:12:15.422Z,82.31
2023-04-24T00:14:43.752Z,82.83
2023-04-24T00:17:12.061Z,83.14
2023-04-24T00:19:40.637Z,83.49
2023-04-24T00:22:08.990Z,83.80
2023-04-24T00:24:37.212Z,84.16
2023-04-24T00:27:05.457Z,84.37
2023-04-24T00:29:33.630Z,84.63
2023-04-24T00:32:02.124Z,84.96
2023-04-24T00:34:30.467Z,85.46
2023-04-24T00:36:58.775Z,85.74
2023-04-24T00:39:27.315Z,86.00
2023-04-24T00:41:56.238Z,86.06
2023-04-24T00:44:25.085Z,86.24
2023-04-24T00:46:55.793Z,86.43
2023-04-24T00:49:24.343Z,86.74
2023-04-24T00:51:52.978Z,86.81
2023-04-24T00:54:21.750Z,87.10
2023-04-24T00:56:50.204Z,87.47
2023-04-24T00:59:19.079Z,87.92
2023-04-24T01:01:48.008Z,88.07
2023-04-24T01:04:19.005Z,88.16
2023-04-24T01:06:47.589Z,88.24
2023-04-24T01:09:16.563Z,88.48
2023-04-24T01:11:44.992Z,88.55
2023-04-24T01:14:14.342Z,88.57
2023-04-24T01:16:43.396Z,88.74
2023-04-24T01:19:13.507Z,89.16
2023-04-24T01:21:44.381Z,89.47
2023-04-24T01:24:13.111Z,89.66
2023-04-24T01:26:41.368Z,89.72
2023-04-24T01:29:09.746Z,89.89
2023-04-24T01:31:38.245Z,89.97
2023-04-24T01:34:06.858Z,90.10
2023-04-24T01:36:36.214Z,90.16
2023-04-24T01:39:04.824Z,90.22
2023-04-24T01:41:33.761Z,90.44
2023-04-24T01:44:02.799Z,90.55
2023-04-24T01:46:32.634Z,90.71
2023-04-24T01:49:01.650Z,90.84
2023-04-24T01:51:30.084Z,91.00
2023-04-24T01:53:58.885Z,91.07
2023-04-24T01:56:34.517Z,91.18
2023-04-24T01:59:04.258Z,91.26
2023-04-24T02:01:39.097Z,91.31
2023-04-24T02:04:09.048Z,91.52
2023-04-24T02:06:38.262Z,92.02
2023-04-24T02:09:06.573Z,92.51
2023-04-24T02:11:34.880Z,92.73
2023-04-24T02:14:03.351Z,93.08
2023-04-24T02:16:33.698Z,92.75
2023-04-24T02:19:02.324Z,92.57
2023-04-24T02:21:31.806Z,92.73
2023-04-24T02:24:00.208Z,92.83
2023-04-24T02:26:28.670Z,93.16
2023-04-24T02:29:01.283Z,93.51
2023-04-24T02:31:29.648Z,93.71
2023-04-24T02:33:57.930Z,94.01
2023-04-24T02:36:26.297Z,94.13
2023-04-24T02:38:54.732Z,94.11
2023-04-24T02:41:22.975Z,94.00
2023-04-24T02:43:51.261Z,94.05
2023-04-24T02:46:19.731Z,94.18
2023-04-24T02:48:48.073Z,94.39
2023-04-24T02:51:16.389Z,94.57
2023-04-24T02:53:45.024Z,94.80
2023-04-24T02:56:14.032Z,95.14
2023-04-24T02:58:43.308Z,95.07
2023-04-24T03:01:11.940Z,95.37
2023-04-24T03:03:41.160Z,95.55
2023-04-24T03:06:09.494Z,95.81
2023-04-24T03:08:38.165Z,95.90
2023-04-24T03:11:06.412Z,96.01
2023-04-24T03:13:34.620Z,96.06
2023-04-24T03:16:03.079Z,96.09
2023-04-24T03:18:31.546Z,96.21
2023-04-24T03:21:00.394Z,96.26
2023-04-24T03:23:29.040Z,96.33
2023-04-24T03:25:57.363Z,96.88
2023-04-24T03:28:26.878Z,97.41
2023-04-24T03:31:01.064Z,97.39
2023-04-24T03:33:31.775Z,97.26
2023-04-24T03:36:03.595Z,97.39
2023-04-24T03:38:38.750Z,97.37
2023-04-24T03:41:36.355Z,97.34
2023-04-24T03:44:18.872Z,97.33
2023-04-24T03:46:47.518Z,97.39
2023-04-24T03:49:15.895Z,97.50
2023-04-24T03:51:45.750Z,97.64
2023-04-24T03:54:25.301Z,98.07
2023-04-24T03:56:54.205Z,98.40
2023-04-24T03:59:22.768Z,98.49
2023-04-24T04:02:00.622Z,98.73
2023-04-24T04:04:29.075Z,99.67
2023-04-24T04:06:57.520Z,100.00
2023-04-24T04:09:26.469Z,100.00
2023-04-24T04:11:54.823Z,100.00
2023-04-24T04:14:24.328Z,100.00
2023-04-24T04:16:54.723Z,100.00
2023-04-24T04:19:23.376Z,100.00
2023-04-24T04:21:54.427Z,99.67
2023-04-24T04:24:39.196Z,98.56
2023-04-24T04:27:10.526Z,97.30
2023-04-24T04:29:46.922Z,95.83
2023-04-24T04:32:19.163Z,94.17
2023-04-24T04:34:47.518Z,92.79
2023-04-24T04:37:15.923Z,90.94
2023-04-24T04:40:07.964Z,89.47
2023-04-24T04:42:43.690Z,87.58
2023-04-24T04:45:12.679Z,86.10
2023-04-24T04:47:52.928Z,84.56
2023-04-24T04:50:21.647Z,83.43
2023-04-24T04:52:50.156Z,82.42
2023-04-24T04:55:26.279Z,81.20
2023-04-24T04:58:15.764Z,80.18
2023-04-24T05:00:45.282Z,79.13
2023-04-24T05:03:39.817Z,77.76
2023-04-24T05:06:11.132Z,77.11
2023-04-24T05:08:41.016Z,76.67
2023-04-24T05:11:12.743Z,75.97
2023-04-24T05:13:41.529Z,74.90
2023-04-24T05:16:27.784Z,74.18
2023-04-24T05:18:56.379Z,73.43
2023-04-24T05:21:30.249Z,72.70
2023-04-24T05:23:58.635Z,72.44
2023-04-24T05:26:48.037Z,71.35
2023-04-24T05:29:17.606Z,70.21
2023-04-24T05:31:46.091Z,69.92
2023-04-24T05:34:15.241Z,69.59
2023-04-24T05:36:45.110Z,69.11
2023-04-24T05:39:13.382Z,67.99
2023-04-24T05:41:41.792Z,67.93
2023-04-24T05:44:10.383Z,67.63
2023-04-24T05:46:38.753Z,66.72
2023-04-24T05:49:07.269Z,66.48
2023-04-24T05:51:35.715Z,65.25
2023-04-24T05:54:04.316Z,64.95
2023-04-24T05:56:33.039Z,64.92
2023-04-24T05:59:01.593Z,64.24
2023-04-24T06:01:29.753Z,63.76
2023-04-24T06:04:07.995Z,63.70
2023-04-24T06:06:36.976Z,63.39
2023-04-24T06:09:05.845Z,63.10
2023-04-24T06:11:34.311Z,62.67
2023-04-24T06:14:02.827Z,61.44
2023-04-24T06:16:43.447Z,61.29
2023-04-24T06:19:21.936Z,61.51
2023-04-24T06:21:50.689Z,60.59
2023-04-24T06:24:18.930Z,59.85
2023-04-24T06:26:47.267Z,60.41
2023-04-24T06:29:15.726Z,60.05
2023-04-24T06:31:44.032Z,59.59
2023-04-24T06:34:12.282Z,60.00
2023-04-24T06:36:40.701Z,59.36
2023-04-24T06:39:08.989Z,58.00
2023-04-24T06:41:37.220Z,57.50
2023-04-24T06:44:05.568Z,56.82
2023-04-24T06:46:33.907Z,55.48
2023-04-24T06:49:02.125Z,54.98
2023-04-24T06:51:34.045Z,54.64
2023-04-24T06:54:02.946Z,54.13
2023-04-24T06:56:32.153Z,52.66
2023-04-24T06:59:00.500Z,51.20
2023-04-24T07:01:28.865Z,51.61
2023-04-24T07:03:57.217Z,50.82
2023-04-24T07:06:25.631Z,50.87
2023-04-24T07:08:54.093Z,50.06
2023-04-24T07:11:23.223Z,48.47
2023-04-24T07:13:51.379Z,48.28
2023-04-24T07:16:19.678Z,47.73
2023-04-24T07:18:48.141Z,46.64
2023-04-24T07:21:16.630Z,45.14
2023-04-24T07:23:44.892Z,44.34
2023-04-24T07:26:15.453Z,43.76
2023-04-24T07:28:44.109Z,43.40
2023-04-24T07:31:12.904Z,43.06
2023-04-24T07:33:41.191Z,43.80
2023-04-24T07:36:16.291Z,44.11
2023-04-24T07:38:44.450Z,44.07
2023-04-24T07:41:14.398Z,44.01
2023-04-24T07:43:43.110Z,43.52
2023-04-24T07:46:11.496Z,42.44
2023-04-24T07:48:39.770Z,41.46
2023-04-24T07:51:09.318Z,41.63
2023-04-24T07:53:37.629Z,41.85
2023-04-24T07:56:06.668Z,41.31
2023-04-24T07:58:35.600Z,41.02
2023-04-24T08:01:04.085Z,40.76
2023-04-24T08:03:32.475Z,39.56
2023-04-24T08:06:01.308Z,39.13
2023-04-24T08:08:29.702Z,40.20
2023-04-24T08:10:58.015Z,39.30
2023-04-24T08:13:26.296Z,38.34
2023-04-24T08:15:54.947Z,39.88
2023-04-24T08:18:23.487Z,38.56
2023-04-24T08:20:51.811Z,38.45
2023-04-24T08:23:20.242Z,38.89
2023-04-24T08:25:48.661Z,38.81
2023-04-24T08:28:21.159Z,39.80
2023-04-24T08:30:49.530Z,39.03
2023-04-24T08:33:17.753Z,38.18
2023-04-24T08:35:46.023Z,38.05
2023-04-24T08:38:14.349Z,36.98
2023-04-24T08:40:42.862Z,36.59
2023-04-24T08:43:12.252Z,36.82
2023-04-24T08:45:41.168Z,37.82
2023-04-24T08:48:19.729Z,36.13
2023-04-24T08:50:52.543Z,36.58
2023-04-24T08:53:21.014Z,36.84
2023-04-24T08:55:52.904Z,36.87
2023-04-24T08:58:21.612Z,36.50
2023-04-24T09:00:50.378Z,36.10
2023-04-24T09:03:20.127Z,35.54
2023-04-24T09:05:50.746Z,36.28
2023-04-24T09:08:20.732Z,36.33
2023-04-24T09:10:52.170Z,35.34
2023-04-24T09:13:21.612Z,36.01
2023-04-24T09:15:50.413Z,36.39
2023-04-24T09:18:18.776Z,36.00
2023-04-24T09:21:13.326Z,35.55
2023-04-24T09:23:42.081Z,35.09
2023-04-24T09:26:11.591Z,35.57
2023-04-24T09:28:41.390Z,34.29
2023-04-24T09:31:22.680Z,34.55
2023-04-24T09:34:03.170Z,34.87
2023-04-24T09:36:50.414Z,34.49
2023-04-24T09:39:21.300Z,34.67
2023-04-24T09:41:52.694Z,33.12
2023-04-24T09:44:22.955Z,34.18
2023-04-24T09:46:58.929Z,33.64
2023-04-24T09:49:34.365Z,34.45
2023-04-24T09:52:12.662Z,33.91
2023-04-24T09:54:41.050Z,33.44
2023-04-24T09:57:10.511Z,34.11
2023-04-24T09:59:45.700Z,34.34
2023-04-24T10:02:21.694Z,33.58
2023-04-24T10:05:01.272Z,33.76
2023-04-24T10:07:30.072Z,33.24
2023-04-24T10:09:58.779Z,32.84
2023-04-24T10:12:28.166Z,33.29
2023-04-24T10:14:57.754Z,32.12
2023-04-24T10:17:26.898Z,32.32
2023-04-24T10:19:56.370Z,31.65
2023-04-24T10:22:25.280Z,31.40
2023-04-24T10:24:53.751Z,31.56
2023-04-24T10:27:23.056Z,31.46
2023-04-24T10:29:54.254Z,31.66
2023-04-24T10:32:22.671Z,32.29
2023-04-24T10:34:51.116Z,32.15
2023-04-24T10:37:20.336Z,31.41
2023-04-24T10:39:52.042Z,32.53
2023-04-24T10:42:20.857Z,32.40
2023-04-24T10:44:50.509Z,32.25
2023-04-24T10:47:18.948Z,33.24
2023-04-24T10:49:47.393Z,34.15
2023-04-24T10:52:15.993Z,33.77
2023-04-24T10:54:48.756Z,34.41
2023-04-24T10:57:23.281Z,34.02
2023-04-24T11:00:12.652Z,33.46
2023-04-24T11:02:44.928Z,32.54
2023-04-24T11:05:18.144Z,32.35
2023-04-24T11:08:14.636Z,31.69
2023-04-24T11:11:00.426Z,31.61
2023-04-24T11:13:54.461Z,31.48
2023-04-24T11:16:31.313Z,31.42
2023-04-24T11:19:16.550Z,31.02
2023-04-24T11:22:02.733Z,31.84
2023-04-24T11:24:40.755Z,30.85
2023-04-24T11:27:19.173Z,31.62
2023-04-24T11:30:06.119Z,30.99
2023-04-24T11:32:34.416Z,31.30
2023-04-24T11:35:06.329Z,31.61
2023-04-24T11:37:43.019Z,31.19
2023-04-24T11:40:13.155Z,28.81
2023-04-24T11:42:44.495Z,29.02
2023-04-24T11:45:14.123Z,29.77
2023-04-24T11:47:43.781Z,28.87
2023-04-24T11:50:14.457Z,28.55
2023-04-24T11:52:44.985Z,29.33
2023-04-24T11:55:16.283Z,30.04
2023-04-24T11:57:45.771Z,30.81
2023-04-24T12:00:22.227Z,30.96
2023-04-24T12:02:51.684Z,30.92
2023-04-24T12:05:25.107Z,30.12
2023-04-24T12:07:54.559Z,30.51
2023-04-24T12:10:27.756Z,30.33
2023-04-24T12:12:57.958Z,30.58
2023-04-24T12:15:26.768Z,30.75
2023-04-24T12:17:56.386Z,31.79
2023-04-24T12:20:30.377Z,32.18
2023-04-24T12:23:00.708Z,32.22
2023-04-24T12:25:30.068Z,32.83
2023-04-24T12:28:18.686Z,32.18
2023-04-24T12:30:51.404Z,32.56
2023-04-24T12:33:23.035Z,31.77
2023-04-24T12:35:55.176Z,31.83
2023-04-24T12:38:27.283Z,31.80
2023-04-24T12:41:14.833Z,32.57
2023-04-24T12:43:54.627Z,33.21
2023-04-24T12:46:23.226Z,32.37
2023-04-24T12:48:51.616Z,32.50
2023-04-24T12:51:19.907Z,32.72
2023-04-24T12:53:48.458Z,31.92
2023-04-24T12:56:16.743Z,31.57
2023-04-24T12:58:46.000Z,31.70
2023-04-24T13:01:14.301Z,31.87
2023-04-24T13:03:43.848Z,32.38
2023-04-24T13:06:12.341Z,32.85
2023-04-24T13:08:40.819Z,33.04
2023-04-24T13:11:09.119Z,33.09
2023-04-24T13:13:37.396Z,33.74
2023-04-24T13:16:05.998Z,33.85
2023-04-24T13:18:34.395Z,33.93
2023-04-24T13:21:02.658Z,34.33
2023-04-24T13:23:31.042Z,35.01
2023-04-24T13:25:59.537Z,35.35
2023-04-24T13:28:28.036Z,35.96
2023-04-24T13:30:56.538Z,36.24
2023-04-24T13:33:24.841Z,36.68
2023-04-24T13:35:53.246Z,36.95
2023-04-24T13:38:23.292Z,37.38
2023-04-24T13:40:51.753Z,37.73
2023-04-24T13:43:19.995Z,37.91
2023-04-24T13:45:48.305Z,38.15
2023-04-24T13:48:16.633Z,38.17
2023-04-24T13:50:45.534Z,38.25
2023-04-24T13:53:13.959Z,38.78
2023-04-24T13:55:42.610Z,39.04
2023-04-24T13:58:11.615Z,39.23
2023-04-24T14:00:40.023Z,39.64
2023-04-24T14:03:08.495Z,39.88
2023-04-24T14:05:38.772Z,39.62
2023-04-24T14:08:07.427Z,39.72
2023-04-24T14:10:36.295Z,40.31
2023-04-24T14:13:04.566Z,40.29
2023-04-24T14:15:32.994Z,40.57
2023-04-24T14:18:01.869Z,40.42
2023-04-24T14:20:30.672Z,40.86
2023-04-24T14:23:00.159Z,40.79
2023-04-24T14:25:28.566Z,40.80
2023-04-24T14:27:56.899Z,41.20
2023-04-24T14:30:25.193Z,41.25
2023-04-24T14:32:53.583Z,41.75
2023-04-24T14:35:21.897Z,41.74
2023-04-24T14:37:50.905Z,41.59
2023-04-24T14:40:41.473Z,40.69
2023-04-24T14:43:08.120Z,41.01
2023-04-24T14:45:38.227Z,41.16
2023-04-24T14:48:06.503Z,41.53
2023-04-24T14:50:35.173Z,41.71
2023-04-24T14:53:03.556Z,41.46
2023-04-24T14:55:32.109Z,42.39
2023-04-24T14:58:00.649Z,42.37
2023-04-24T15:00:29.116Z,42.00
2023-04-24T15:02:57.549Z,41.77
2023-04-24T15:05:27.589Z,41.19
2023-04-24T15:07:56.039Z,41.14
2023-04-24T15:10:24.970Z,41.60
2023-04-24T15:12:53.456Z,41.54
2023-04-24T15:15:21.725Z,41.45
2023-04-24T15:17:50.094Z,41.59
2023-04-24T15:20:19.281Z,41.91
2023-04-24T15:22:47.960Z,42.27
2023-04-24T15:25:16.260Z,42.60
2023-04-24T15:27:46.432Z,42.62
2023-04-24T15:30:15.522Z,42.86
2023-04-24T15:32:43.857Z,43.46
2023-04-24T15:35:12.289Z,43.51
2023-04-24T15:37:40.620Z,43.79
2023-04-24T15:40:11.546Z,44.20
2023-04-24T15:42:41.164Z,44.64
2023-04-24T15:45:10.535Z,44.87
2023-04-24T15:47:39.813Z,45.33
2023-04-24T15:50:14.450Z,45.48
2023-04-24T15:52:46.243Z,46.00
2023-04-24T15:55:14.434Z,46.56
2023-04-24T15:57:43.050Z,46.57
2023-04-24T16:00:11.908Z,46.77
2023-04-24T16:02:41.563Z,46.95
2023-04-24T16:05:11.252Z,47.16
2023-04-24T16:07:40.420Z,47.45
2023-04-24T16:10:09.962Z,47.81
2023-04-24T16:12:38.224Z,48.20
2023-04-24T16:15:07.146Z,48.84
2023-04-24T16:17:35.719Z,49.04
2023-04-24T16:20:05.459Z,49.26
2023-04-24T16:22:33.754Z,49.58
2023-04-24T16:25:02.277Z,49.95
2023-04-24T16:27:30.759Z,50.62
2023-04-24T16:29:59.763Z,51.15
2023-04-24T16:32:28.324Z,51.71
2023-04-24T16:34:56.778Z,52.13
2023-04-24T16:37:25.052Z,52.53
2023-04-24T16:39:55.157Z,53.24
2023-04-24T16:42:23.699Z,53.50
2023-04-24T16:44:52.086Z,53.72
2023-04-24T16:47:20.762Z,54.45
2023-04-24T16:49:49.865Z,54.43
2023-04-24T16:52:18.171Z,55.06
2023-04-24T16:54:46.543Z,55.63
2023-04-24T16:57:15.010Z,55.85
2023-04-24T16:59:43.304Z,55.98
2023-04-24T17:02:11.764Z,56.52
2023-04-24T17:04:42.060Z,57.42
2023-04-24T17:07:10.468Z,57.46
2023-04-24T17:09:38.906Z,57.88
2023-04-24T17:12:08.400Z,58.32
2023-04-24T17:14:36.964Z,58.79
2023-04-24T17:17:05.576Z,58.91
2023-04-24T17:19:33.903Z,59.28
2023-04-24T17:22:06.140Z,59.36
2023-04-24T17:24:34.987Z,59.35
2023-04-24T17:27:31.441Z,59.26
2023-04-24T17:29:59.944Z,59.59
2023-04-24T17:32:28.822Z,59.53
2023-04-24T17:34:57.258Z,59.60
2023-04-24T17:37:26.953Z,59.89
2023-04-24T17:39:55.468Z,59.86
2023-04-24T17:42:23.975Z,60.13
2023-04-24T17:44:52.360Z,60.27
2023-04-24T17:47:22.491Z,60.39
2023-04-24T17:49:52.134Z,61.19
2023-04-24T17:52:20.743Z,61.44
2023-04-24T17:54:49.833Z,61.50
2023-04-24T17:57:20.920Z,61.40
2023-04-24T18:00:14.602Z,61.67
2023-04-24T18:02:43.103Z,61.93
2023-04-24T18:05:11.634Z,62.32
2023-04-24T18:07:40.184Z,62.76
2023-04-24T18:10:09.046Z,62.60
2023-04-24T18:12:37.504Z,63.14
2023-04-24T18:15:14.353Z,63.70
2023-04-24T18:17:43.713Z,64.11
2023-04-24T18:20:16.346Z,64.40
2023-04-24T18:22:45.545Z,64.40
2023-04-24T18:25:15.406Z,64.63
2023-04-24T18:27:43.734Z,64.54
2023-04-24T18:30:14.913Z,64.89
2023-04-24T18:32:43.500Z,65.55
2023-04-24T18:35:11.692Z,65.96
2023-04-24T18:37:40.920Z,66.34
2023-04-24T18:40:10.035Z,66.54
2023-04-24T18:42:38.915Z,66.84
2023-04-24T18:45:08.034Z,67.02
2023-04-24T18:47:36.846Z,67.59
2023-04-24T18:50:06.628Z,68.44
2023-04-24T18:52:36.093Z,69.18
2023-04-24T18:55:04.854Z,70.29
2023-04-24T18:57:33.679Z,70.82
2023-04-24T19:00:02.285Z,71.21
2023-04-24T19:02:30.968Z,71.68
2023-04-24T19:04:59.366Z,72.18
2023-04-24T19:07:27.592Z,72.99
2023-04-24T19:09:55.867Z,73.28
2023-04-24T19:12:24.285Z,73.59
2023-04-24T19:14:55.795Z,74.13
2023-04-24T19:17:25.561Z,74.33
2023-04-24T19:19:53.957Z,74.70
2023-04-24T19:22:22.266Z,74.86
2023-04-24T19:24:50.565Z,75.15
2023-04-24T19:27:18.807Z,75.38
2023-04-24T19:29:47.403Z,75.54
2023-04-24T19:32:15.782Z,75.79
2023-04-24T19:34:44.130Z,76.22
2023-04-24T19:37:13.413Z,76.64
2023-04-24T19:39:42.016Z,77.00
2023-04-24T19:42:10.388Z,77.35
2023-04-24T19:44:39.528Z,77.87
2023-04-24T19:47:09.624Z,78.19
2023-04-24T19:49:38.184Z,78.48
2023-04-24T19:52:08.998Z,78.77
2023-04-24T19:54:37.492Z,78.93
2023-04-24T19:57:05.848Z,79.24
2023-04-24T19:59:34.258Z,79.58
2023-04-24T20:02:02.668Z,79.86
2023-04-24T20:04:31.384Z,80.26
2023-04-24T20:06:59.779Z,80.45
2023-04-24T20:09:28.349Z,80.70
2023-04-24T20:11:57.213Z,80.96
2023-04-24T20:14:25.620Z,81.09
2023-04-24T20:16:54.465Z,81.45
2023-04-24T20:19:22.814Z,81.77
2023-04-24T20:21:51.709Z,81.92
2023-04-24T20:24:20.292Z,82.10
2023-04-24T20:26:48.617Z,82.09
2023-04-24T20:29:16.909Z,82.27
2023-04-24T20:31:45.486Z,82.48
2023-04-24T20:34:13.888Z,82.90
2023-04-24T20:36:47.978Z,83.14
2023-04-24T20:39:17.775Z,83.44
2023-04-24T20:41:46.473Z,83.74
2023-04-24T20:44:14.873Z,84.15
2023-04-24T20:46:43.290Z,84.50
2023-04-24T20:49:11.543Z,84.83
2023-04-24T20:51:40.147Z,85.20
2023-04-24T20:54:08.508Z,85.63
2023-04-24T20:56:36.880Z,86.11
2023-04-24T20:59:05.194Z,86.23
2023-04-24T21:01:33.500Z,86.65
2023-04-24T21:04:01.926Z,86.99
2023-04-24T21:06:31.053Z,87.29
2023-04-24T21:08:59.589Z,87.62
2023-04-24T21:11:27.913Z,88.00
2023-04-24T21:13:56.276Z,88.44
2023-04-24T21:16:24.763Z,88.73
2023-04-24T21:18:53.054Z,88.97
2023-04-24T21:21:21.556Z,89.19
2023-04-24T21:23:50.070Z,89.17
2023-04-24T21:26:18.705Z,89.41
2023-04-24T21:28:47.249Z,89.44
2023-04-24T21:31:15.587Z,89.46
2023-04-24T21:33:43.852Z,89.71
2023-04-24T21:36:12.160Z,89.49
2023-04-24T21:38:40.819Z,89.53
2023-04-24T21:41:09.224Z,89.68
2023-04-24T21:43:44.836Z,89.85
2023-04-24T21:46:13.859Z,90.04
2023-04-24T21:48:42.143Z,90.05
2023-04-24T21:51:12.488Z,89.93
2023-04-24T21:53:41.474Z,89.87
2023-04-24T21:56:09.743Z,89.91
2023-04-24T21:58:39.271Z,89.84
2023-04-24T22:01:07.777Z,89.81
2023-04-24T22:03:36.280Z,89.79
2023-04-24T22:06:04.838Z,89.93
2023-04-24T22:08:33.071Z,89.91
2023-04-24T22:11:01.399Z,89.88
2023-04-24T22:13:33.231Z,89.77
2023-04-24T22:16:02.339Z,89.72
2023-04-24T22:18:36.738Z,89.71
2023-04-24T22:21:15.953Z,89.31
2023-04-24T22:23:44.050Z,89.24
2023-04-24T22:26:12.578Z,89.26
2023-04-24T22:28:40.821Z,89.22
2023-04-24T22:31:09.261Z,89.07
2023-04-24T22:33:37.459Z,89.19
2023-04-24T22:36:05.909Z,88.87
2023-04-24T22:38:34.224Z,88.85
2023-04-24T22:41:02.414Z,88.84
2023-04-24T22:43:32.760Z,88.65
2023-04-24T22:46:01.000Z,88.61
2023-04-24T22:48:29.130Z,88.77
2023-04-24T22:50:58.380Z,88.53
2023-04-24T22:53:27.822Z,88.51
2023-04-24T22:55:56.700Z,88.46
2023-04-24T22:58:26.064Z,88.39
2023-04-24T23:00:54.305Z,88.49
2023-04-24T23:03:22.728Z,88.32
2023-04-24T23:05:51.107Z,88.36
2023-04-24T23:08:19.278Z,88.30
2023-04-24T23:10:47.878Z,88.21
2023-04-24T23:13:16.352Z,88.40
2023-04-24T23:15:44.614Z,88.82
2023-04-24T23:18:12.851Z,88.76
2023-04-24T23:20:42.061Z,88.97
2023-04-24T23:23:10.596Z,88.87
2023-04-24T23:25:39.209Z,88.99
2023-04-24T23:28:07.410Z,89.04
2023-04-24T23:30:35.657Z,89.22
2023-04-24T23:33:03.941Z,89.35
2023-04-24T23:35:32.295Z,89.54
2023-04-24T23:38:00.955Z,89.82
2023-04-24T23:40:29.161Z,89.93
2023-04-24T23:43:06.305Z,90.40
2023-04-24T23:45:35.759Z,90.90
2023-04-24T23:48:04.612Z,90.98
2023-04-24T23:50:32.911Z,91.23
2023-04-24T23:53:01.232Z,91.59
2023-04-24T23:55:29.866Z,92.09
2023-04-24T23:57:58.178Z,92.66
